sensor_id;sensor_type;location;lat;lon;timestamp;temperature;humidity
22161;DHT22;49035;48.812;11.762;2022-09-09T00:02:03;10.40;99.90
22161;DHT22;49035;48.812;11.762;2022-09-09T00:04:33;10.40;99.90
22161;DHT22;49035;48.812;11.762;2022-09-09T00:07:00;10.70;99.90
22161;DHT22;49035;48.812;11.762;2022-09-09T00:09:31;10.70;99.90
22161;DHT22;49035;48.812;11.762;2022-09-09T00:12:08;10.60;99.90
22161;DHT22;49035;48.812;11.762;2022-09-09T00:15:02;10.50;99.90
22161;DHT22;49035;48.812;11.762;2022-09-09T00:17:38;10.40;99.90
22161;DHT22;49035;48.812;11.762;2022-09-09T00:23:27;10.30;99.90
22161;DHT22;49035;48.812;11.762;2022-09-09T00:26:14;10.20;99.90
22161;DHT22;49035;48.812;11.762;2022-09-09T00:31:20;10.20;99.90
22161;DHT22;49035;48.812;11.762;2022-09-09T00:33:48;10.20;99.90
22161;DHT22;49035;48.812;11.762;2022-09-09T00:36:18;10.10;99.90
22161;DHT22;49035;48.812;11.762;2022-09-09T00:38:53;10.00;99.90
22161;DHT22;49035;48.812;11.762;2022-09-09T00:41:41;10.00;99.90
22161;DHT22;49035;48.812;11.762;2022-09-09T00:44:21;10.00;99.90
22161;DHT22;49035;48.812;11.762;2022-09-09T00:46:59;10.10;99.90
22161;DHT22;49035;48.812;11.762;2022-09-09T00:50:00;10.30;99.90
22161;DHT22;49035;48.812;11.762;2022-09-09T00:53:04;10.20;99.90
22161;DHT22;49035;48.812;11.762;2022-09-09T00:55:45;10.30;99.90
22161;DHT22;49035;48.812;11.762;2022-09-09T00:58:13;10.40;99.90
22161;DHT22;49035;48.812;11.762;2022-09-09T01:03:30;10.60;99.90
22161;DHT22;49035;48.812;11.762;2022-09-09T01:06:11;10.50;99.90
22161;DHT22;49035;48.812;11.762;2022-09-09T01:09:17;10.50;99.90
22161;DHT22;49035;48.812;11.762;2022-09-09T01:11:55;10.40;99.90
22161;DHT22;49035;48.812;11.762;2022-09-09T01:16:59;10.50;99.90
22161;DHT22;49035;48.812;11.762;2022-09-09T01:22:40;10.40;99.90
22161;DHT22;49035;48.812;11.762;2022-09-09T01:28:19;10.20;99.90
22161;DHT22;49035;48.812;11.762;2022-09-09T01:30:47;10.10;99.90
22161;DHT22;49035;48.812;11.762;2022-09-09T01:33:16;10.00;99.90
22161;DHT22;49035;48.812;11.762;2022-09-09T01:35:50;10.00;99.90
22161;DHT22;49035;48.812;11.762;2022-09-09T01:38:20;9.90;99.90
22161;DHT22;49035;48.812;11.762;2022-09-09T01:40:47;9.80;99.90
22161;DHT22;49035;48.812;11.762;2022-09-09T01:43:13;9.80;99.90
22161;DHT22;49035;48.812;11.762;2022-09-09T01:45:40;9.90;99.90
22161;DHT22;49035;48.812;11.762;2022-09-09T01:48:06;9.90;99.90
22161;DHT22;49035;48.812;11.762;2022-09-09T01:50:32;10.00;99.90
22161;DHT22;49035;48.812;11.762;2022-09-09T01:52:59;10.10;99.90
22161;DHT22;49035;48.812;11.762;2022-09-09T01:55:31;10.10;99.90
22161;DHT22;49035;48.812;11.762;2022-09-09T02:00:47;10.00;99.90
22161;DHT22;49035;48.812;11.762;2022-09-09T02:03:27;10.00;99.90
22161;DHT22;49035;48.812;11.762;2022-09-09T02:08:45;10.10;99.90
22161;DHT22;49035;48.812;11.762;2022-09-09T02:11:14;10.10;99.90
22161;DHT22;49035;48.812;11.762;2022-09-09T02:13:41;10.10;99.90
22161;DHT22;49035;48.812;11.762;2022-09-09T02:21:06;10.20;99.90
22161;DHT22;49035;48.812;11.762;2022-09-09T02:23:34;10.40;99.90
22161;DHT22;49035;48.812;11.762;2022-09-09T02:26:00;10.50;99.90
22161;DHT22;49035;48.812;11.762;2022-09-09T02:28:29;10.40;99.90
22161;DHT22;49035;48.812;11.762;2022-09-09T02:30:56;10.30;99.90
22161;DHT22;49035;48.812;11.762;2022-09-09T02:33:28;10.20;99.90
22161;DHT22;49035;48.812;11.762;2022-09-09T02:35:55;10.30;99.90
22161;DHT22;49035;48.812;11.762;2022-09-09T02:38:29;10.30;99.90
22161;DHT22;49035;48.812;11.762;2022-09-09T02:40:57;10.20;99.90
22161;DHT22;49035;48.812;11.762;2022-09-09T02:43:23;10.00;99.90
22161;DHT22;49035;48.812;11.762;2022-09-09T02:51:23;10.00;99.90
22161;DHT22;49035;48.812;11.762;2022-09-09T02:53:59;9.90;99.90
22161;DHT22;49035;48.812;11.762;2022-09-09T02:56:31;9.90;99.90
22161;DHT22;49035;48.812;11.762;2022-09-09T02:58:59;9.80;99.90
22161;DHT22;49035;48.812;11.762;2022-09-09T03:01:28;9.70;99.90
22161;DHT22;49035;48.812;11.762;2022-09-09T03:03:53;9.60;99.90
22161;DHT22;49035;48.812;11.762;2022-09-09T03:06:20;9.70;99.90
22161;DHT22;49035;48.812;11.762;2022-09-09T03:08:45;9.60;99.90
22161;DHT22;49035;48.812;11.762;2022-09-09T03:11:11;9.50;99.90
22161;DHT22;49035;48.812;11.762;2022-09-09T03:13:37;9.40;99.90
22161;DHT22;49035;48.812;11.762;2022-09-09T03:16:03;9.30;99.90
22161;DHT22;49035;48.812;11.762;2022-09-09T03:18:29;9.30;99.90
22161;DHT22;49035;48.812;11.762;2022-09-09T03:20:55;9.50;99.90
22161;DHT22;49035;48.812;11.762;2022-09-09T03:23:21;9.80;99.90
22161;DHT22;49035;48.812;11.762;2022-09-09T03:25:48;9.70;99.90
22161;DHT22;49035;48.812;11.762;2022-09-09T03:28:14;9.50;99.90
22161;DHT22;49035;48.812;11.762;2022-09-09T03:30:40;9.30;99.90
22161;DHT22;49035;48.812;11.762;2022-09-09T03:33:06;9.30;99.90
22161;DHT22;49035;48.812;11.762;2022-09-09T03:35:32;9.20;99.90
22161;DHT22;49035;48.812;11.762;2022-09-09T03:37:57;9.20;99.90
22161;DHT22;49035;48.812;11.762;2022-09-09T03:40:23;9.10;99.90
22161;DHT22;49035;48.812;11.762;2022-09-09T03:42:48;9.00;99.90
22161;DHT22;49035;48.812;11.762;2022-09-09T03:45:14;9.00;99.90
22161;DHT22;49035;48.812;11.762;2022-09-09T03:47:40;9.10;99.90
22161;DHT22;49035;48.812;11.762;2022-09-09T03:50:07;9.30;99.90
22161;DHT22;49035;48.812;11.762;2022-09-09T03:52:39;9.40;99.90
22161;DHT22;49035;48.812;11.762;2022-09-09T03:55:06;9.60;99.90
22161;DHT22;49035;48.812;11.762;2022-09-09T03:57:33;9.70;99.90
22161;DHT22;49035;48.812;11.762;2022-09-09T04:00:04;9.90;99.90
22161;DHT22;49035;48.812;11.762;2022-09-09T04:02:30;10.00;99.90
22161;DHT22;49035;48.812;11.762;2022-09-09T04:04:56;10.00;99.90
22161;DHT22;49035;48.812;11.762;2022-09-09T04:07:22;10.10;99.90
22161;DHT22;49035;48.812;11.762;2022-09-09T04:09:47;10.00;99.90
22161;DHT22;49035;48.812;11.762;2022-09-09T04:12:13;10.00;99.90
22161;DHT22;49035;48.812;11.762;2022-09-09T04:14:39;10.20;99.90
22161;DHT22;49035;48.812;11.762;2022-09-09T04:17:04;10.20;99.90
22161;DHT22;49035;48.812;11.762;2022-09-09T04:19:32;10.10;99.90
22161;DHT22;49035;48.812;11.762;2022-09-09T04:21:57;10.00;99.90
22161;DHT22;49035;48.812;11.762;2022-09-09T04:24:23;9.80;99.90
22161;DHT22;49035;48.812;11.762;2022-09-09T04:26:50;9.80;99.90
22161;DHT22;49035;48.812;11.762;2022-09-09T04:29:16;9.80;99.90
22161;DHT22;49035;48.812;11.762;2022-09-09T04:31:41;9.80;99.90
22161;DHT22;49035;48.812;11.762;2022-09-09T04:34:08;9.90;99.90
22161;DHT22;49035;48.812;11.762;2022-09-09T04:36:34;9.90;99.90
22161;DHT22;49035;48.812;11.762;2022-09-09T04:39:00;9.90;99.90
22161;DHT22;49035;48.812;11.762;2022-09-09T04:41:27;10.00;99.90
22161;DHT22;49035;48.812;11.762;2022-09-09T04:43:52;10.00;99.90
22161;DHT22;49035;48.812;11.762;2022-09-09T04:46:19;10.10;99.90
22161;DHT22;49035;48.812;11.762;2022-09-09T04:48:45;10.20;99.90
22161;DHT22;49035;48.812;11.762;2022-09-09T04:51:13;10.00;99.90
22161;DHT22;49035;48.812;11.762;2022-09-09T04:53:39;10.00;99.90
22161;DHT22;49035;48.812;11.762;2022-09-09T04:56:14;10.10;99.90
22161;DHT22;49035;48.812;11.762;2022-09-09T04:58:40;10.20;99.90
22161;DHT22;49035;48.812;11.762;2022-09-09T05:01:12;10.10;99.90
22161;DHT22;49035;48.812;11.762;2022-09-09T05:03:38;10.10;99.90
22161;DHT22;49035;48.812;11.762;2022-09-09T05:06:11;10.10;99.90
22161;DHT22;49035;48.812;11.762;2022-09-09T05:08:38;10.10;99.90
22161;DHT22;49035;48.812;11.762;2022-09-09T05:11:21;10.10;99.90
22161;DHT22;49035;48.812;11.762;2022-09-09T05:13:48;10.40;99.90
22161;DHT22;49035;48.812;11.762;2022-09-09T05:16:15;10.50;99.90
22161;DHT22;49035;48.812;11.762;2022-09-09T05:18:42;10.60;99.90
22161;DHT22;49035;48.812;11.762;2022-09-09T05:21:08;10.60;99.90
22161;DHT22;49035;48.812;11.762;2022-09-09T05:23:35;10.70;99.90
22161;DHT22;49035;48.812;11.762;2022-09-09T05:26:01;10.80;99.90
22161;DHT22;49035;48.812;11.762;2022-09-09T05:28:27;11.00;99.90
22161;DHT22;49035;48.812;11.762;2022-09-09T05:31:01;11.20;99.90
22161;DHT22;49035;48.812;11.762;2022-09-09T05:33:31;11.40;99.90
22161;DHT22;49035;48.812;11.762;2022-09-09T05:36:02;11.70;99.90
22161;DHT22;49035;48.812;11.762;2022-09-09T05:38:29;11.80;99.90
22161;DHT22;49035;48.812;11.762;2022-09-09T05:40:55;11.80;99.90
22161;DHT22;49035;48.812;11.762;2022-09-09T05:43:24;11.80;99.90
22161;DHT22;49035;48.812;11.762;2022-09-09T05:46:11;11.80;99.90
22161;DHT22;49035;48.812;11.762;2022-09-09T05:48:42;12.00;99.90
22161;DHT22;49035;48.812;11.762;2022-09-09T05:51:13;12.20;99.90
22161;DHT22;49035;48.812;11.762;2022-09-09T05:53:41;12.30;99.90
22161;DHT22;49035;48.812;11.762;2022-09-09T05:56:09;12.20;99.90
22161;DHT22;49035;48.812;11.762;2022-09-09T05:58:40;12.10;99.90
22161;DHT22;49035;48.812;11.762;2022-09-09T06:01:06;12.10;99.90
22161;DHT22;49035;48.812;11.762;2022-09-09T06:03:34;12.10;99.90
22161;DHT22;49035;48.812;11.762;2022-09-09T06:06:02;12.00;99.90
22161;DHT22;49035;48.812;11.762;2022-09-09T06:08:30;12.00;99.90
22161;DHT22;49035;48.812;11.762;2022-09-09T06:11:02;12.10;99.90
22161;DHT22;49035;48.812;11.762;2022-09-09T06:13:28;12.60;99.90
22161;DHT22;49035;48.812;11.762;2022-09-09T06:15:54;13.20;99.90
22161;DHT22;49035;48.812;11.762;2022-09-09T06:18:20;13.90;99.90
22161;DHT22;49035;48.812;11.762;2022-09-09T06:20:56;14.20;99.90
22161;DHT22;49035;48.812;11.762;2022-09-09T06:23:22;14.60;99.90
22161;DHT22;49035;48.812;11.762;2022-09-09T06:25:47;15.10;99.90
22161;DHT22;49035;48.812;11.762;2022-09-09T06:28:14;15.50;99.90
22161;DHT22;49035;48.812;11.762;2022-09-09T06:30:41;15.80;99.90
22161;DHT22;49035;48.812;11.762;2022-09-09T06:33:06;15.90;99.90
22161;DHT22;49035;48.812;11.762;2022-09-09T06:35:32;15.70;99.90
22161;DHT22;49035;48.812;11.762;2022-09-09T06:37:58;15.30;99.90
22161;DHT22;49035;48.812;11.762;2022-09-09T06:40:24;14.90;99.90
22161;DHT22;49035;48.812;11.762;2022-09-09T06:42:50;14.70;99.90
22161;DHT22;49035;48.812;11.762;2022-09-09T06:45:16;14.30;99.90
22161;DHT22;49035;48.812;11.762;2022-09-09T06:47:42;14.10;99.90
22161;DHT22;49035;48.812;11.762;2022-09-09T06:50:08;14.10;99.90
22161;DHT22;49035;48.812;11.762;2022-09-09T06:52:35;14.10;99.90
22161;DHT22;49035;48.812;11.762;2022-09-09T06:55:01;14.10;99.90
22161;DHT22;49035;48.812;11.762;2022-09-09T06:57:26;14.10;99.90
22161;DHT22;49035;48.812;11.762;2022-09-09T06:59:52;14.10;99.90
22161;DHT22;49035;48.812;11.762;2022-09-09T07:02:17;13.90;99.90
22161;DHT22;49035;48.812;11.762;2022-09-09T07:04:43;13.90;99.90
22161;DHT22;49035;48.812;11.762;2022-09-09T07:07:09;13.90;99.90
22161;DHT22;49035;48.812;11.762;2022-09-09T07:09:37;13.80;99.90
22161;DHT22;49035;48.812;11.762;2022-09-09T07:12:03;13.80;99.90
22161;DHT22;49035;48.812;11.762;2022-09-09T07:14:31;13.70;99.90
22161;DHT22;49035;48.812;11.762;2022-09-09T07:16:56;13.70;99.90
22161;DHT22;49035;48.812;11.762;2022-09-09T07:19:22;13.80;99.90
22161;DHT22;49035;48.812;11.762;2022-09-09T07:21:48;13.80;99.90
22161;DHT22;49035;48.812;11.762;2022-09-09T07:24:14;13.90;99.90
22161;DHT22;49035;48.812;11.762;2022-09-09T07:26:41;13.90;99.90
22161;DHT22;49035;48.812;11.762;2022-09-09T07:29:07;14.00;99.90
22161;DHT22;49035;48.812;11.762;2022-09-09T07:31:35;14.10;99.90
22161;DHT22;49035;48.812;11.762;2022-09-09T07:34:03;14.10;99.90
22161;DHT22;49035;48.812;11.762;2022-09-09T07:36:34;14.10;99.90
22161;DHT22;49035;48.812;11.762;2022-09-09T07:39:03;14.10;99.90
22161;DHT22;49035;48.812;11.762;2022-09-09T07:41:35;14.20;99.90
22161;DHT22;49035;48.812;11.762;2022-09-09T07:44:12;14.20;99.90
22161;DHT22;49035;48.812;11.762;2022-09-09T07:46:39;14.30;99.90
22161;DHT22;49035;48.812;11.762;2022-09-09T07:49:05;14.30;99.90
22161;DHT22;49035;48.812;11.762;2022-09-09T07:51:33;14.30;99.90
22161;DHT22;49035;48.812;11.762;2022-09-09T07:54:04;14.30;99.90
22161;DHT22;49035;48.812;11.762;2022-09-09T07:56:30;14.30;99.90
22161;DHT22;49035;48.812;11.762;2022-09-09T07:58:57;14.50;99.90
22161;DHT22;49035;48.812;11.762;2022-09-09T08:01:28;14.60;99.90
22161;DHT22;49035;48.812;11.762;2022-09-09T08:03:56;14.70;99.90
22161;DHT22;49035;48.812;11.762;2022-09-09T08:06:25;14.80;99.90
22161;DHT22;49035;48.812;11.762;2022-09-09T08:08:52;14.90;99.90
22161;DHT22;49035;48.812;11.762;2022-09-09T08:11:18;15.00;99.90
22161;DHT22;49035;48.812;11.762;2022-09-09T08:13:44;15.00;99.90
22161;DHT22;49035;48.812;11.762;2022-09-09T08:16:14;15.00;99.90
22161;DHT22;49035;48.812;11.762;2022-09-09T08:18:40;15.00;99.90
22161;DHT22;49035;48.812;11.762;2022-09-09T08:21:14;15.00;99.90
22161;DHT22;49035;48.812;11.762;2022-09-09T08:23:41;15.10;99.90
22161;DHT22;49035;48.812;11.762;2022-09-09T08:26:11;15.20;99.90
22161;DHT22;49035;48.812;11.762;2022-09-09T08:28:37;15.40;99.90
22161;DHT22;49035;48.812;11.762;2022-09-09T08:31:22;15.60;99.90
22161;DHT22;49035;48.812;11.762;2022-09-09T08:33:48;15.80;99.90
22161;DHT22;49035;48.812;11.762;2022-09-09T08:36:19;16.00;99.90
22161;DHT22;49035;48.812;11.762;2022-09-09T08:38:49;16.30;99.90
22161;DHT22;49035;48.812;11.762;2022-09-09T08:44:17;16.80;99.90
22161;DHT22;49035;48.812;11.762;2022-09-09T08:52:13;17.10;99.90
22161;DHT22;49035;48.812;11.762;2022-09-09T08:54:41;17.20;99.90
22161;DHT22;49035;48.812;11.762;2022-09-09T08:57:14;17.20;99.90
22161;DHT22;49035;48.812;11.762;2022-09-09T08:59:40;17.30;99.90
22161;DHT22;49035;48.812;11.762;2022-09-09T09:02:21;17.40;99.90
22161;DHT22;49035;48.812;11.762;2022-09-09T09:07:21;18.30;99.90
22161;DHT22;49035;48.812;11.762;2022-09-09T09:12:28;19.70;99.90
22161;DHT22;49035;48.812;11.762;2022-09-09T09:14:55;20.20;99.90
22161;DHT22;49035;48.812;11.762;2022-09-09T09:17:26;20.70;99.90
22161;DHT22;49035;48.812;11.762;2022-09-09T09:19:53;20.60;99.90
22161;DHT22;49035;48.812;11.762;2022-09-09T09:22:25;21.00;99.90
22161;DHT22;49035;48.812;11.762;2022-09-09T09:24:56;21.50;99.90
22161;DHT22;49035;48.812;11.762;2022-09-09T09:29:51;22.20;99.90
22161;DHT22;49035;48.812;11.762;2022-09-09T09:32:21;22.40;99.90
22161;DHT22;49035;48.812;11.762;2022-09-09T09:34:54;22.60;99.90
22161;DHT22;49035;48.812;11.762;2022-09-09T09:37:31;22.60;99.90
22161;DHT22;49035;48.812;11.762;2022-09-09T09:40:15;22.80;99.90
22161;DHT22;49035;48.812;11.762;2022-09-09T09:48:03;23.10;99.90
22161;DHT22;49035;48.812;11.762;2022-09-09T09:50:29;22.90;99.90
22161;DHT22;49035;48.812;11.762;2022-09-09T09:53:04;22.80;99.90
22161;DHT22;49035;48.812;11.762;2022-09-09T09:55:31;22.70;99.90
22161;DHT22;49035;48.812;11.762;2022-09-09T09:58:06;23.00;99.90
22161;DHT22;49035;48.812;11.762;2022-09-09T10:00:33;23.30;99.90
22161;DHT22;49035;48.812;11.762;2022-09-09T10:03:00;23.70;99.90
22161;DHT22;49035;48.812;11.762;2022-09-09T10:05:30;23.90;99.90
22161;DHT22;49035;48.812;11.762;2022-09-09T10:08:13;23.10;98.50
22161;DHT22;49035;48.812;11.762;2022-09-09T10:16:44;22.30;99.90
22161;DHT22;49035;48.812;11.762;2022-09-09T10:19:34;22.40;99.90
22161;DHT22;49035;48.812;11.762;2022-09-09T10:22:26;22.70;99.00
22161;DHT22;49035;48.812;11.762;2022-09-09T10:28:10;22.80;99.90
22161;DHT22;49035;48.812;11.762;2022-09-09T10:36:21;23.80;97.60
22161;DHT22;49035;48.812;11.762;2022-09-09T10:38:52;23.70;95.70
22161;DHT22;49035;48.812;11.762;2022-09-09T10:47:43;22.90;98.70
22161;DHT22;49035;48.812;11.762;2022-09-09T10:53:13;23.10;99.90
22161;DHT22;49035;48.812;11.762;2022-09-09T10:55:43;23.30;97.40
22161;DHT22;49035;48.812;11.762;2022-09-09T10:58:50;23.60;96.20
22161;DHT22;49035;48.812;11.762;2022-09-09T11:01:25;23.90;95.30
22161;DHT22;49035;48.812;11.762;2022-09-09T11:04:00;24.40;95.70
22161;DHT22;49035;48.812;11.762;2022-09-09T11:06:37;25.00;92.90
22161;DHT22;49035;48.812;11.762;2022-09-09T11:09:03;25.30;91.10
22161;DHT22;49035;48.812;11.762;2022-09-09T11:11:42;25.40;91.00
22161;DHT22;49035;48.812;11.762;2022-09-09T11:17:16;25.00;87.90
22161;DHT22;49035;48.812;11.762;2022-09-09T11:19:44;25.00;87.10
22161;DHT22;49035;48.812;11.762;2022-09-09T11:30:45;24.80;81.00
22161;DHT22;49035;48.812;11.762;2022-09-09T11:33:25;25.10;80.20
22161;DHT22;49035;48.812;11.762;2022-09-09T11:36:03;25.30;81.80
22161;DHT22;49035;48.812;11.762;2022-09-09T11:38:45;25.30;84.90
22161;DHT22;49035;48.812;11.762;2022-09-09T11:41:13;25.60;78.90
22161;DHT22;49035;48.812;11.762;2022-09-09T11:43:42;25.80;80.50
22161;DHT22;49035;48.812;11.762;2022-09-09T11:46:09;25.70;79.30
22161;DHT22;49035;48.812;11.762;2022-09-09T11:48:36;26.10;76.20
22161;DHT22;49035;48.812;11.762;2022-09-09T11:54:00;26.70;78.10
22161;DHT22;49035;48.812;11.762;2022-09-09T11:56:44;26.80;77.30
22161;DHT22;49035;48.812;11.762;2022-09-09T11:59:24;26.60;74.60
22161;DHT22;49035;48.812;11.762;2022-09-09T12:01:56;26.40;73.20
22161;DHT22;49035;48.812;11.762;2022-09-09T12:07:03;26.50;75.30
22161;DHT22;49035;48.812;11.762;2022-09-09T12:09:50;26.60;74.60
22161;DHT22;49035;48.812;11.762;2022-09-09T12:12:32;26.60;76.70
22161;DHT22;49035;48.812;11.762;2022-09-09T12:20:15;25.60;77.70
22161;DHT22;49035;48.812;11.762;2022-09-09T12:28:18;24.90;84.90
22161;DHT22;49035;48.812;11.762;2022-09-09T12:33:44;24.90;84.00
22161;DHT22;49035;48.812;11.762;2022-09-09T12:36:27;24.80;82.40
22161;DHT22;49035;48.812;11.762;2022-09-09T12:38:58;24.90;84.80
22161;DHT22;49035;48.812;11.762;2022-09-09T12:41:34;25.40;85.20
22161;DHT22;49035;48.812;11.762;2022-09-09T12:44:09;25.50;82.20
22161;DHT22;49035;48.812;11.762;2022-09-09T12:46:41;25.40;81.40
22161;DHT22;49035;48.812;11.762;2022-09-09T12:49:32;25.30;80.80
22161;DHT22;49035;48.812;11.762;2022-09-09T12:52:26;25.40;81.30
22161;DHT22;49035;48.812;11.762;2022-09-09T12:54:53;25.30;80.70
22161;DHT22;49035;48.812;11.762;2022-09-09T12:57:20;25.30;83.00
22161;DHT22;49035;48.812;11.762;2022-09-09T12:59:47;25.40;82.20
22161;DHT22;49035;48.812;11.762;2022-09-09T13:02:22;25.40;80.50
22161;DHT22;49035;48.812;11.762;2022-09-09T13:04:49;25.40;84.10
22161;DHT22;49035;48.812;11.762;2022-09-09T13:07:16;25.70;83.80
22161;DHT22;49035;48.812;11.762;2022-09-09T13:09:42;25.50;82.20
22161;DHT22;49035;48.812;11.762;2022-09-09T13:12:14;25.50;84.50
22161;DHT22;49035;48.812;11.762;2022-09-09T13:14:44;25.10;83.00
22161;DHT22;49035;48.812;11.762;2022-09-09T13:17:21;24.90;85.10
22161;DHT22;49035;48.812;11.762;2022-09-09T13:19:47;24.80;85.40
22161;DHT22;49035;48.812;11.762;2022-09-09T13:27:35;24.20;87.90
22161;DHT22;49035;48.812;11.762;2022-09-09T13:30:21;24.00;87.50
22161;DHT22;49035;48.812;11.762;2022-09-09T13:33:21;24.00;88.10
22161;DHT22;49035;48.812;11.762;2022-09-09T13:35:54;24.20;89.20
22161;DHT22;49035;48.812;11.762;2022-09-09T13:38:20;24.60;88.50
22161;DHT22;49035;48.812;11.762;2022-09-09T13:41:19;25.10;88.70
22161;DHT22;49035;48.812;11.762;2022-09-09T13:43:47;24.80;84.20
22161;DHT22;49035;48.812;11.762;2022-09-09T13:46:24;24.50;87.50
22161;DHT22;49035;48.812;11.762;2022-09-09T13:48:55;24.70;87.40
22161;DHT22;49035;48.812;11.762;2022-09-09T13:51:29;25.00;86.20
22161;DHT22;49035;48.812;11.762;2022-09-09T13:53:57;25.10;84.90
22161;DHT22;49035;48.812;11.762;2022-09-09T13:56:24;25.20;86.60
22161;DHT22;49035;48.812;11.762;2022-09-09T13:58:49;25.20;84.50
22161;DHT22;49035;48.812;11.762;2022-09-09T14:01:15;25.00;84.20
22161;DHT22;49035;48.812;11.762;2022-09-09T14:03:41;24.50;83.10
22161;DHT22;49035;48.812;11.762;2022-09-09T14:06:07;24.10;87.00
22161;DHT22;49035;48.812;11.762;2022-09-09T14:08:32;24.00;85.20
22161;DHT22;49035;48.812;11.762;2022-09-09T14:11:03;23.50;86.20
22161;DHT22;49035;48.812;11.762;2022-09-09T14:13:29;23.60;88.70
22161;DHT22;49035;48.812;11.762;2022-09-09T14:15:54;23.80;85.80
22161;DHT22;49035;48.812;11.762;2022-09-09T14:18:20;23.80;87.40
22161;DHT22;49035;48.812;11.762;2022-09-09T14:20:47;23.60;86.60
22161;DHT22;49035;48.812;11.762;2022-09-09T14:23:13;23.50;84.40
22161;DHT22;49035;48.812;11.762;2022-09-09T14:25:41;23.20;88.20
22161;DHT22;49035;48.812;11.762;2022-09-09T14:28:11;23.20;88.90
22161;DHT22;49035;48.812;11.762;2022-09-09T14:30:38;23.30;88.50
22161;DHT22;49035;48.812;11.762;2022-09-09T14:33:05;23.50;86.80
22161;DHT22;49035;48.812;11.762;2022-09-09T14:35:31;23.70;87.90
22161;DHT22;49035;48.812;11.762;2022-09-09T14:37:58;23.80;86.50
22161;DHT22;49035;48.812;11.762;2022-09-09T14:40:26;24.10;86.80
22161;DHT22;49035;48.812;11.762;2022-09-09T14:42:52;24.10;83.40
22161;DHT22;49035;48.812;11.762;2022-09-09T14:45:18;23.90;83.40
22161;DHT22;49035;48.812;11.762;2022-09-09T14:47:44;23.70;84.40
22161;DHT22;49035;48.812;11.762;2022-09-09T14:50:10;23.30;86.30
22161;DHT22;49035;48.812;11.762;2022-09-09T14:52:38;22.90;90.50
22161;DHT22;49035;48.812;11.762;2022-09-09T14:55:04;22.50;90.80
22161;DHT22;49035;48.812;11.762;2022-09-09T14:57:30;22.10;91.00
22161;DHT22;49035;48.812;11.762;2022-09-09T14:59:56;21.80;91.50
22161;DHT22;49035;48.812;11.762;2022-09-09T15:02:22;21.60;91.80
22161;DHT22;49035;48.812;11.762;2022-09-09T15:04:47;21.50;92.60
22161;DHT22;49035;48.812;11.762;2022-09-09T15:07:15;21.40;93.50
22161;DHT22;49035;48.812;11.762;2022-09-09T15:09:42;21.40;94.00
22161;DHT22;49035;48.812;11.762;2022-09-09T15:12:07;21.30;94.10
22161;DHT22;49035;48.812;11.762;2022-09-09T15:14:33;21.30;94.40
22161;DHT22;49035;48.812;11.762;2022-09-09T15:17:00;21.20;94.10
22161;DHT22;49035;48.812;11.762;2022-09-09T15:19:26;21.10;94.20
22161;DHT22;49035;48.812;11.762;2022-09-09T15:21:52;21.10;94.50
22161;DHT22;49035;48.812;11.762;2022-09-09T15:24:18;21.00;95.20
22161;DHT22;49035;48.812;11.762;2022-09-09T15:26:43;21.00;95.20
22161;DHT22;49035;48.812;11.762;2022-09-09T15:29:09;21.00;95.90
22161;DHT22;49035;48.812;11.762;2022-09-09T15:31:35;21.00;96.70
22161;DHT22;49035;48.812;11.762;2022-09-09T15:34:02;21.00;96.20
22161;DHT22;49035;48.812;11.762;2022-09-09T15:36:31;21.00;97.10
22161;DHT22;49035;48.812;11.762;2022-09-09T15:39:00;21.10;96.30
22161;DHT22;49035;48.812;11.762;2022-09-09T15:41:27;21.10;96.90
22161;DHT22;49035;48.812;11.762;2022-09-09T15:43:57;21.20;97.10
22161;DHT22;49035;48.812;11.762;2022-09-09T15:46:43;21.40;96.40
22161;DHT22;49035;48.812;11.762;2022-09-09T15:51:40;21.80;96.60
22161;DHT22;49035;48.812;11.762;2022-09-09T15:54:06;22.00;95.60
22161;DHT22;49035;48.812;11.762;2022-09-09T15:56:31;22.20;95.40
22161;DHT22;49035;48.812;11.762;2022-09-09T15:58:59;22.20;94.50
22161;DHT22;49035;48.812;11.762;2022-09-09T16:01:26;22.30;94.00
22161;DHT22;49035;48.812;11.762;2022-09-09T16:03:52;22.40;94.60
22161;DHT22;49035;48.812;11.762;2022-09-09T16:06:20;22.30;93.90
22161;DHT22;49035;48.812;11.762;2022-09-09T16:08:47;22.00;94.30
22161;DHT22;49035;48.812;11.762;2022-09-09T16:11:17;21.80;95.30
22161;DHT22;49035;48.812;11.762;2022-09-09T16:13:48;21.80;95.10
22161;DHT22;49035;48.812;11.762;2022-09-09T16:16:20;21.80;93.90
22161;DHT22;49035;48.812;11.762;2022-09-09T16:18:49;21.60;94.90
22161;DHT22;49035;48.812;11.762;2022-09-09T16:21:19;21.50;95.40
22161;DHT22;49035;48.812;11.762;2022-09-09T16:23:46;21.40;94.90
22161;DHT22;49035;48.812;11.762;2022-09-09T16:26:13;21.30;95.60
22161;DHT22;49035;48.812;11.762;2022-09-09T16:28:39;21.30;95.90
22161;DHT22;49035;48.812;11.762;2022-09-09T16:31:08;21.40;96.00
22161;DHT22;49035;48.812;11.762;2022-09-09T16:33:43;21.30;95.70
22161;DHT22;49035;48.812;11.762;2022-09-09T16:36:11;21.20;96.00
22161;DHT22;49035;48.812;11.762;2022-09-09T16:38:38;21.10;95.40
22161;DHT22;49035;48.812;11.762;2022-09-09T16:41:04;21.00;94.40
22161;DHT22;49035;48.812;11.762;2022-09-09T16:43:34;20.90;93.40
22161;DHT22;49035;48.812;11.762;2022-09-09T16:46:02;20.70;92.50
22161;DHT22;49035;48.812;11.762;2022-09-09T16:48:32;20.50;91.40
22161;DHT22;49035;48.812;11.762;2022-09-09T16:51:02;20.10;91.40
22161;DHT22;49035;48.812;11.762;2022-09-09T16:53:30;19.60;91.00
22161;DHT22;49035;48.812;11.762;2022-09-09T16:55:56;19.20;90.30
22161;DHT22;49035;48.812;11.762;2022-09-09T16:58:22;18.80;90.80
22161;DHT22;49035;48.812;11.762;2022-09-09T17:00:47;18.40;91.90
22161;DHT22;49035;48.812;11.762;2022-09-09T17:03:14;18.00;92.80
22161;DHT22;49035;48.812;11.762;2022-09-09T17:05:40;17.70;92.50
22161;DHT22;49035;48.812;11.762;2022-09-09T17:08:06;17.50;93.00
22161;DHT22;49035;48.812;11.762;2022-09-09T17:10:32;17.30;93.50
22161;DHT22;49035;48.812;11.762;2022-09-09T17:12:58;17.10;94.00
22161;DHT22;49035;48.812;11.762;2022-09-09T17:15:23;17.00;94.80
22161;DHT22;49035;48.812;11.762;2022-09-09T17:17:49;17.00;95.30
22161;DHT22;49035;48.812;11.762;2022-09-09T17:20:18;17.00;95.70
22161;DHT22;49035;48.812;11.762;2022-09-09T17:22:43;17.00;96.30
22161;DHT22;49035;48.812;11.762;2022-09-09T17:25:09;17.00;96.70
22161;DHT22;49035;48.812;11.762;2022-09-09T17:27:35;17.00;96.60
22161;DHT22;49035;48.812;11.762;2022-09-09T17:30:00;16.90;97.50
22161;DHT22;49035;48.812;11.762;2022-09-09T17:32:27;16.90;97.90